Chicago, Illinois
Traffic Map
Current Weather Conditions
Chicago, Illinois
Overcast Light Rain
Overcast

Feels Like: 3°
Wind Chill: Ceiling: 3600
Heat Index: Visibility: 10mi
Dew Point: Wind: 20mph
Humidity: 65% Direction: 330° (NNW)
Pressure: 30.03in Gusts: 26mph
Raw Report DataKMDW 310853Z 33017G23KT 10SM -RA SCT030 OVC036 07/01 A3003 RMK AO2 PK WND 33030/0810 RAE24B42 SLP171 P0000 60000 T00720011 53000
Traffic Incident Summary
Active as of:
Severity:
Category:
InformationThere was an issue retrieving the traffic information for this location. Please try a different location or try again shortly.
Advertisements
Track Severe Weather on mobile